sensor_id;sensor_type;location;lat;lon;timestamp;P1;durP1;ratioP1;P2;durP2;ratioP2
16478;SDS011;8350;52.316;10.530;2023-08-12T00:02:33;7.28;;;2.88;;
16478;SDS011;8350;52.316;10.530;2023-08-12T00:05:00;5.18;;;2.90;;
16478;SDS011;8350;52.316;10.530;2023-08-12T00:07:28;7.05;;;2.85;;
16478;SDS011;8350;52.316;10.530;2023-08-12T00:09:55;5.32;;;2.80;;
16478;SDS011;8350;52.316;10.530;2023-08-12T00:12:22;4.63;;;2.47;;
16478;SDS011;8350;52.316;10.530;2023-08-12T00:14:49;8.35;;;3.05;;
16478;SDS011;8350;52.316;10.530;2023-08-12T00:17:16;3.75;;;3.00;;
16478;SDS011;8350;52.316;10.530;2023-08-12T00:19:45;8.27;;;3.00;;
16478;SDS011;8350;52.316;10.530;2023-08-12T00:22:12;6.63;;;2.95;;
16478;SDS011;8350;52.316;10.530;2023-08-12T00:24:39;7.55;;;2.83;;
16478;SDS011;8350;52.316;10.530;2023-08-12T00:27:06;4.18;;;2.70;;
16478;SDS011;8350;52.316;10.530;2023-08-12T00:29:34;9.48;;;3.17;;
16478;SDS011;8350;52.316;10.530;2023-08-12T00:32:01;5.03;;;2.88;;
16478;SDS011;8350;52.316;10.530;2023-08-12T00:34:28;6.15;;;2.85;;
16478;SDS011;8350;52.316;10.530;2023-08-12T00:36:59;7.13;;;2.83;;
16478;SDS011;8350;52.316;10.530;2023-08-12T00:39:26;5.75;;;2.88;;
16478;SDS011;8350;52.316;10.530;2023-08-12T00:41:53;7.15;;;2.75;;
16478;SDS011;8350;52.316;10.530;2023-08-12T00:44:20;8.93;;;2.90;;
16478;SDS011;8350;52.316;10.530;2023-08-12T00:46:47;6.40;;;3.00;;
16478;SDS011;8350;52.316;10.530;2023-08-12T00:49:15;3.95;;;2.70;;
16478;SDS011;8350;52.316;10.530;2023-08-12T00:51:43;5.95;;;3.28;;
16478;SDS011;8350;52.316;10.530;2023-08-12T00:54:15;10.93;;;2.90;;
16478;SDS011;8350;52.316;10.530;2023-08-12T00:56:43;5.03;;;2.78;;
16478;SDS011;8350;52.316;10.530;2023-08-12T00:59:12;5.80;;;2.85;;
16478;SDS011;8350;52.316;10.530;2023-08-12T01:01:39;2.97;;;2.53;;
16478;SDS011;8350;52.316;10.530;2023-08-12T01:04:07;3.63;;;2.63;;
16478;SDS011;8350;52.316;10.530;2023-08-12T01:06:34;7.13;;;3.38;;
16478;SDS011;8350;52.316;10.530;2023-08-12T01:09:02;4.22;;;2.95;;
16478;SDS011;8350;52.316;10.530;2023-08-12T01:11:34;11.90;;;2.78;;
16478;SDS011;8350;52.316;10.530;2023-08-12T01:14:22;3.78;;;2.63;;
16478;SDS011;8350;52.316;10.530;2023-08-12T01:16:55;6.40;;;2.50;;
16478;SDS011;8350;52.316;10.530;2023-08-12T01:19:29;3.90;;;2.58;;
16478;SDS011;8350;52.316;10.530;2023-08-12T01:21:59;7.15;;;3.03;;
16478;SDS011;8350;52.316;10.530;2023-08-12T01:24:34;3.83;;;2.88;;
16478;SDS011;8350;52.316;10.530;2023-08-12T01:27:04;5.03;;;2.88;;
16478;SDS011;8350;52.316;10.530;2023-08-12T01:29:32;7.22;;;2.65;;
16478;SDS011;8350;52.316;10.530;2023-08-12T01:32:02;3.10;;;2.80;;
16478;SDS011;8350;52.316;10.530;2023-08-12T01:34:40;10.45;;;3.33;;
16478;SDS011;8350;52.316;10.530;2023-08-12T01:37:11;6.65;;;2.85;;
16478;SDS011;8350;52.316;10.530;2023-08-12T01:39:43;5.68;;;2.92;;
16478;SDS011;8350;52.316;10.530;2023-08-12T01:42:13;5.68;;;2.80;;
16478;SDS011;8350;52.316;10.530;2023-08-12T01:44:41;9.13;;;3.28;;
16478;SDS011;8350;52.316;10.530;2023-08-12T01:47:16;7.63;;;3.38;;
16478;SDS011;8350;52.316;10.530;2023-08-12T01:49:43;3.97;;;2.90;;
16478;SDS011;8350;52.316;10.530;2023-08-12T01:52:10;4.50;;;2.95;;
16478;SDS011;8350;52.316;10.530;2023-08-12T01:54:37;5.50;;;3.60;;
16478;SDS011;8350;52.316;10.530;2023-08-12T01:57:05;5.10;;;2.63;;
16478;SDS011;8350;52.316;10.530;2023-08-12T01:59:33;4.47;;;3.22;;
16478;SDS011;8350;52.316;10.530;2023-08-12T02:02:00;4.55;;;2.50;;
16478;SDS011;8350;52.316;10.530;2023-08-12T02:04:29;10.07;;;2.90;;
16478;SDS011;8350;52.316;10.530;2023-08-12T02:06:56;5.43;;;3.08;;
16478;SDS011;8350;52.316;10.530;2023-08-12T02:09:24;5.28;;;3.10;;
16478;SDS011;8350;52.316;10.530;2023-08-12T02:11:53;7.30;;;3.20;;
16478;SDS011;8350;52.316;10.530;2023-08-12T02:14:21;6.43;;;2.88;;
16478;SDS011;8350;52.316;10.530;2023-08-12T02:16:48;8.30;;;3.28;;
16478;SDS011;8350;52.316;10.530;2023-08-12T02:19:15;5.72;;;2.97;;
16478;SDS011;8350;52.316;10.530;2023-08-12T02:21:42;4.75;;;2.90;;
16478;SDS011;8350;52.316;10.530;2023-08-12T02:24:11;5.63;;;2.97;;
16478;SDS011;8350;52.316;10.530;2023-08-12T02:26:38;5.85;;;2.83;;
16478;SDS011;8350;52.316;10.530;2023-08-12T02:29:08;4.80;;;3.03;;
16478;SDS011;8350;52.316;10.530;2023-08-12T02:31:36;4.22;;;2.75;;
16478;SDS011;8350;52.316;10.530;2023-08-12T02:34:03;3.67;;;2.75;;
16478;SDS011;8350;52.316;10.530;2023-08-12T02:36:30;5.85;;;2.70;;
16478;SDS011;8350;52.316;10.530;2023-08-12T02:38:57;4.70;;;2.90;;
16478;SDS011;8350;52.316;10.530;2023-08-12T02:41:24;5.35;;;2.75;;
16478;SDS011;8350;52.316;10.530;2023-08-12T02:43:51;3.95;;;3.00;;
16478;SDS011;8350;52.316;10.530;2023-08-12T02:46:18;4.95;;;2.97;;
16478;SDS011;8350;52.316;10.530;2023-08-12T02:48:47;6.10;;;3.17;;
16478;SDS011;8350;52.316;10.530;2023-08-12T02:51:13;6.32;;;3.03;;
16478;SDS011;8350;52.316;10.530;2023-08-12T02:53:40;5.43;;;3.25;;
16478;SDS011;8350;52.316;10.530;2023-08-12T02:56:07;7.10;;;3.35;;
16478;SDS011;8350;52.316;10.530;2023-08-12T02:58:42;8.20;;;3.40;;
16478;SDS011;8350;52.316;10.530;2023-08-12T03:01:09;5.90;;;2.75;;
16478;SDS011;8350;52.316;10.530;2023-08-12T03:03:36;3.85;;;2.90;;
16478;SDS011;8350;52.316;10.530;2023-08-12T03:06:04;5.70;;;3.00;;
16478;SDS011;8350;52.316;10.530;2023-08-12T03:08:32;5.13;;;2.97;;
16478;SDS011;8350;52.316;10.530;2023-08-12T03:10:59;3.97;;;2.75;;
16478;SDS011;8350;52.316;10.530;2023-08-12T03:13:26;3.60;;;2.30;;
16478;SDS011;8350;52.316;10.530;2023-08-12T03:15:53;6.05;;;2.85;;
16478;SDS011;8350;52.316;10.530;2023-08-12T03:18:20;4.03;;;2.90;;
16478;SDS011;8350;52.316;10.530;2023-08-12T03:20:47;3.17;;;2.58;;
16478;SDS011;8350;52.316;10.530;2023-08-12T03:23:15;5.65;;;3.00;;
16478;SDS011;8350;52.316;10.530;2023-08-12T03:25:42;3.92;;;3.17;;
16478;SDS011;8350;52.316;10.530;2023-08-12T03:28:09;4.03;;;2.95;;
16478;SDS011;8350;52.316;10.530;2023-08-12T03:30:36;3.45;;;3.15;;
16478;SDS011;8350;52.316;10.530;2023-08-12T03:33:03;3.78;;;2.97;;
16478;SDS011;8350;52.316;10.530;2023-08-12T03:35:30;4.03;;;2.33;;
16478;SDS011;8350;52.316;10.530;2023-08-12T03:37:57;3.25;;;2.80;;
16478;SDS011;8350;52.316;10.530;2023-08-12T03:40:26;4.93;;;3.13;;
16478;SDS011;8350;52.316;10.530;2023-08-12T03:42:53;5.57;;;2.80;;
16478;SDS011;8350;52.316;10.530;2023-08-12T03:45:19;3.45;;;2.70;;
16478;SDS011;8350;52.316;10.530;2023-08-12T03:47:46;6.40;;;2.75;;
16478;SDS011;8350;52.316;10.530;2023-08-12T03:50:14;4.65;;;2.72;;
16478;SDS011;8350;52.316;10.530;2023-08-12T03:52:41;6.07;;;3.25;;
16478;SDS011;8350;52.316;10.530;2023-08-12T03:55:08;3.53;;;2.92;;
16478;SDS011;8350;52.316;10.530;2023-08-12T03:57:37;4.20;;;3.30;;
16478;SDS011;8350;52.316;10.530;2023-08-12T04:00:04;5.55;;;3.28;;
16478;SDS011;8350;52.316;10.530;2023-08-12T04:02:33;3.65;;;3.35;;
16478;SDS011;8350;52.316;10.530;2023-08-12T04:05:00;3.08;;;2.78;;
16478;SDS011;8350;52.316;10.530;2023-08-12T04:07:27;6.70;;;3.60;;
16478;SDS011;8350;52.316;10.530;2023-08-12T04:09:54;3.70;;;3.40;;
16478;SDS011;8350;52.316;10.530;2023-08-12T04:12:21;3.97;;;2.90;;
16478;SDS011;8350;52.316;10.530;2023-08-12T04:14:49;6.53;;;3.50;;
16478;SDS011;8350;52.316;10.530;2023-08-12T04:17:16;6.22;;;3.55;;
16478;SDS011;8350;52.316;10.530;2023-08-12T04:19:43;3.80;;;3.40;;
16478;SDS011;8350;52.316;10.530;2023-08-12T04:22:10;4.20;;;3.08;;
16478;SDS011;8350;52.316;10.530;2023-08-12T04:24:37;3.45;;;3.15;;
16478;SDS011;8350;52.316;10.530;2023-08-12T04:27:04;7.20;;;3.80;;
16478;SDS011;8350;52.316;10.530;2023-08-12T04:29:31;4.78;;;3.85;;
16478;SDS011;8350;52.316;10.530;2023-08-12T04:31:59;5.10;;;3.45;;
16478;SDS011;8350;52.316;10.530;2023-08-12T04:34:26;5.93;;;3.55;;
16478;SDS011;8350;52.316;10.530;2023-08-12T04:36:53;6.78;;;3.10;;
16478;SDS011;8350;52.316;10.530;2023-08-12T04:39:21;4.47;;;3.17;;
16478;SDS011;8350;52.316;10.530;2023-08-12T04:41:48;4.63;;;3.20;;
16478;SDS011;8350;52.316;10.530;2023-08-12T04:44:15;5.68;;;3.33;;
16478;SDS011;8350;52.316;10.530;2023-08-12T04:46:42;6.00;;;3.20;;
16478;SDS011;8350;52.316;10.530;2023-08-12T04:49:10;6.93;;;3.35;;
16478;SDS011;8350;52.316;10.530;2023-08-12T04:51:38;3.72;;;3.17;;
16478;SDS011;8350;52.316;10.530;2023-08-12T04:54:05;6.28;;;3.72;;
16478;SDS011;8350;52.316;10.530;2023-08-12T04:56:33;7.10;;;3.45;;
16478;SDS011;8350;52.316;10.530;2023-08-12T04:59:00;4.15;;;3.33;;
16478;SDS011;8350;52.316;10.530;2023-08-12T05:01:27;4.50;;;3.45;;
16478;SDS011;8350;52.316;10.530;2023-08-12T05:03:54;3.80;;;3.50;;
16478;SDS011;8350;52.316;10.530;2023-08-12T05:06:22;5.78;;;3.72;;
16478;SDS011;8350;52.316;10.530;2023-08-12T05:08:49;4.15;;;3.47;;
16478;SDS011;8350;52.316;10.530;2023-08-12T05:11:16;4.15;;;3.50;;
16478;SDS011;8350;52.316;10.530;2023-08-12T05:13:43;4.22;;;3.17;;
16478;SDS011;8350;52.316;10.530;2023-08-12T05:16:10;3.85;;;3.55;;
16478;SDS011;8350;52.316;10.530;2023-08-12T05:18:37;6.88;;;4.43;;
16478;SDS011;8350;52.316;10.530;2023-08-12T05:21:04;4.78;;;3.88;;
16478;SDS011;8350;52.316;10.530;2023-08-12T05:23:32;4.55;;;4.03;;
16478;SDS011;8350;52.316;10.530;2023-08-12T05:25:59;4.38;;;3.30;;
16478;SDS011;8350;52.316;10.530;2023-08-12T05:28:26;5.57;;;4.10;;
16478;SDS011;8350;52.316;10.530;2023-08-12T05:30:55;4.22;;;3.80;;
16478;SDS011;8350;52.316;10.530;2023-08-12T05:33:22;6.00;;;3.88;;
16478;SDS011;8350;52.316;10.530;2023-08-12T05:35:49;8.95;;;4.20;;
16478;SDS011;8350;52.316;10.530;2023-08-12T05:38:16;4.95;;;3.70;;
16478;SDS011;8350;52.316;10.530;2023-08-12T05:40:44;5.45;;;3.80;;
16478;SDS011;8350;52.316;10.530;2023-08-12T05:43:12;7.30;;;4.10;;
16478;SDS011;8350;52.316;10.530;2023-08-12T05:45:39;4.80;;;4.13;;
16478;SDS011;8350;52.316;10.530;2023-08-12T05:48:07;6.80;;;4.80;;
16478;SDS011;8350;52.316;10.530;2023-08-12T05:50:34;6.32;;;4.10;;
16478;SDS011;8350;52.316;10.530;2023-08-12T05:53:01;6.20;;;4.70;;
16478;SDS011;8350;52.316;10.530;2023-08-12T05:55:28;8.38;;;5.43;;
16478;SDS011;8350;52.316;10.530;2023-08-12T05:57:57;7.13;;;4.20;;
16478;SDS011;8350;52.316;10.530;2023-08-12T06:00:24;5.43;;;4.45;;
16478;SDS011;8350;52.316;10.530;2023-08-12T06:02:51;6.22;;;4.78;;
16478;SDS011;8350;52.316;10.530;2023-08-12T06:05:18;6.35;;;4.45;;
16478;SDS011;8350;52.316;10.530;2023-08-12T06:07:44;5.10;;;4.68;;
16478;SDS011;8350;52.316;10.530;2023-08-12T06:10:11;6.00;;;4.50;;
16478;SDS011;8350;52.316;10.530;2023-08-12T06:12:38;4.57;;;4.13;;
16478;SDS011;8350;52.316;10.530;2023-08-12T06:15:07;5.63;;;4.32;;
16478;SDS011;8350;52.316;10.530;2023-08-12T06:17:34;6.63;;;4.32;;
16478;SDS011;8350;52.316;10.530;2023-08-12T06:20:07;6.57;;;4.78;;
16478;SDS011;8350;52.316;10.530;2023-08-12T06:22:41;4.95;;;4.45;;
16478;SDS011;8350;52.316;10.530;2023-08-12T06:25:11;4.93;;;4.32;;
16478;SDS011;8350;52.316;10.530;2023-08-12T06:27:48;6.10;;;4.82;;
16478;SDS011;8350;52.316;10.530;2023-08-12T06:30:18;6.40;;;4.72;;
16478;SDS011;8350;52.316;10.530;2023-08-12T06:36:04;5.45;;;4.57;;
16478;SDS011;8350;52.316;10.530;2023-08-12T06:38:32;5.70;;;4.60;;
16478;SDS011;8350;52.316;10.530;2023-08-12T06:40:59;5.60;;;4.90;;
16478;SDS011;8350;52.316;10.530;2023-08-12T06:43:26;6.65;;;4.57;;
16478;SDS011;8350;52.316;10.530;2023-08-12T06:45:54;5.07;;;4.57;;
16478;SDS011;8350;52.316;10.530;2023-08-12T06:48:21;6.00;;;4.45;;
16478;SDS011;8350;52.316;10.530;2023-08-12T06:50:52;5.30;;;3.88;;
16478;SDS011;8350;52.316;10.530;2023-08-12T06:53:20;5.75;;;4.35;;
16478;SDS011;8350;52.316;10.530;2023-08-12T06:55:47;6.72;;;4.70;;
16478;SDS011;8350;52.316;10.530;2023-08-12T06:58:14;6.30;;;4.22;;
16478;SDS011;8350;52.316;10.530;2023-08-12T07:00:41;4.28;;;3.88;;
16478;SDS011;8350;52.316;10.530;2023-08-12T07:03:10;4.93;;;4.13;;
16478;SDS011;8350;52.316;10.530;2023-08-12T07:05:37;7.28;;;4.40;;
16478;SDS011;8350;52.316;10.530;2023-08-12T07:08:04;4.70;;;4.30;;
16478;SDS011;8350;52.316;10.530;2023-08-12T07:10:31;5.97;;;4.40;;
16478;SDS011;8350;52.316;10.530;2023-08-12T07:12:58;8.10;;;4.32;;
16478;SDS011;8350;52.316;10.530;2023-08-12T07:15:28;5.05;;;4.53;;
16478;SDS011;8350;52.316;10.530;2023-08-12T07:17:55;6.65;;;4.40;;
16478;SDS011;8350;52.316;10.530;2023-08-12T07:20:24;5.35;;;4.13;;
16478;SDS011;8350;52.316;10.530;2023-08-12T07:22:51;6.32;;;4.47;;
16478;SDS011;8350;52.316;10.530;2023-08-12T07:25:18;7.20;;;4.53;;
16478;SDS011;8350;52.316;10.530;2023-08-12T07:27:44;5.05;;;3.95;;
16478;SDS011;8350;52.316;10.530;2023-08-12T07:30:11;4.82;;;4.13;;
16478;SDS011;8350;52.316;10.530;2023-08-12T07:32:38;4.30;;;3.90;;
16478;SDS011;8350;52.316;10.530;2023-08-12T07:35:06;5.40;;;4.22;;
16478;SDS011;8350;52.316;10.530;2023-08-12T07:37:35;8.32;;;3.85;;
16478;SDS011;8350;52.316;10.530;2023-08-12T07:40:02;4.78;;;4.28;;
16478;SDS011;8350;52.316;10.530;2023-08-12T07:42:29;4.70;;;4.30;;
16478;SDS011;8350;52.316;10.530;2023-08-12T07:44:57;7.13;;;4.47;;
16478;SDS011;8350;52.316;10.530;2023-08-12T07:47:24;4.35;;;3.90;;
16478;SDS011;8350;52.316;10.530;2023-08-12T07:49:51;5.15;;;4.28;;
16478;SDS011;8350;52.316;10.530;2023-08-12T07:52:18;4.20;;;3.80;;
16478;SDS011;8350;52.316;10.530;2023-08-12T07:54:46;5.45;;;4.40;;
16478;SDS011;8350;52.316;10.530;2023-08-12T07:57:13;4.53;;;4.10;;
16478;SDS011;8350;52.316;10.530;2023-08-12T07:59:41;7.25;;;4.57;;
16478;SDS011;8350;52.316;10.530;2023-08-12T08:02:08;5.18;;;4.28;;
16478;SDS011;8350;52.316;10.530;2023-08-12T08:04:37;5.30;;;4.10;;
16478;SDS011;8350;52.316;10.530;2023-08-12T08:07:04;7.13;;;4.40;;
16478;SDS011;8350;52.316;10.530;2023-08-12T08:09:31;6.25;;;4.18;;
16478;SDS011;8350;52.316;10.530;2023-08-12T08:12:00;6.22;;;4.57;;
16478;SDS011;8350;52.316;10.530;2023-08-12T08:14:27;7.30;;;4.38;;
16478;SDS011;8350;52.316;10.530;2023-08-12T08:16:54;5.55;;;4.32;;
16478;SDS011;8350;52.316;10.530;2023-08-12T08:19:21;4.50;;;4.10;;
16478;SDS011;8350;52.316;10.530;2023-08-12T08:21:49;6.72;;;4.05;;
16478;SDS011;8350;52.316;10.530;2023-08-12T08:24:16;6.32;;;4.35;;
16478;SDS011;8350;52.316;10.530;2023-08-12T08:26:43;6.55;;;4.15;;
16478;SDS011;8350;52.316;10.530;2023-08-12T08:29:12;4.75;;;4.25;;
16478;SDS011;8350;52.316;10.530;2023-08-12T08:31:39;7.07;;;4.32;;
16478;SDS011;8350;52.316;10.530;2023-08-12T08:34:06;4.25;;;3.85;;
16478;SDS011;8350;52.316;10.530;2023-08-12T08:36:34;4.47;;;4.00;;
16478;SDS011;8350;52.316;10.530;2023-08-12T08:39:01;4.93;;;4.10;;
16478;SDS011;8350;52.316;10.530;2023-08-12T08:41:29;4.45;;;4.05;;
16478;SDS011;8350;52.316;10.530;2023-08-12T08:46:47;5.25;;;4.13;;
16478;SDS011;8350;52.316;10.530;2023-08-12T08:49:18;4.95;;;3.92;;
16478;SDS011;8350;52.316;10.530;2023-08-12T08:51:46;6.30;;;4.20;;
16478;SDS011;8350;52.316;10.530;2023-08-12T08:54:14;7.40;;;4.30;;
16478;SDS011;8350;52.316;10.530;2023-08-12T08:56:41;4.90;;;4.38;;
16478;SDS011;8350;52.316;10.530;2023-08-12T08:59:08;5.30;;;4.80;;
16478;SDS011;8350;52.316;10.530;2023-08-12T09:01:37;4.85;;;4.13;;
16478;SDS011;8350;52.316;10.530;2023-08-12T09:04:05;4.63;;;4.25;;
16478;SDS011;8350;52.316;10.530;2023-08-12T09:06:33;5.72;;;4.43;;
16478;SDS011;8350;52.316;10.530;2023-08-12T09:09:03;4.70;;;4.30;;
16478;SDS011;8350;52.316;10.530;2023-08-12T09:11:31;4.97;;;4.15;;
16478;SDS011;8350;52.316;10.530;2023-08-12T09:14:00;4.82;;;4.43;;
16478;SDS011;8350;52.316;10.530;2023-08-12T09:16:27;9.35;;;4.75;;
16478;SDS011;8350;52.316;10.530;2023-08-12T09:18:56;5.68;;;4.32;;
16478;SDS011;8350;52.316;10.530;2023-08-12T09:21:24;5.18;;;4.78;;
16478;SDS011;8350;52.316;10.530;2023-08-12T09:23:51;6.13;;;4.18;;
16478;SDS011;8350;52.316;10.530;2023-08-12T09:26:18;4.78;;;4.25;;
16478;SDS011;8350;52.316;10.530;2023-08-12T09:28:46;4.53;;;4.13;;
16478;SDS011;8350;52.316;10.530;2023-08-12T09:31:21;4.65;;;4.07;;
16478;SDS011;8350;52.316;10.530;2023-08-12T09:33:53;4.68;;;4.20;;
16478;SDS011;8350;52.316;10.530;2023-08-12T09:36:23;5.00;;;4.32;;
16478;SDS011;8350;52.316;10.530;2023-08-12T09:38:50;4.90;;;4.40;;
16478;SDS011;8350;52.316;10.530;2023-08-12T09:41:18;4.88;;;4.40;;
16478;SDS011;8350;52.316;10.530;2023-08-12T09:43:45;4.32;;;4.00;;
16478;SDS011;8350;52.316;10.530;2023-08-12T09:46:21;4.75;;;4.35;;
16478;SDS011;8350;52.316;10.530;2023-08-12T09:48:52;5.97;;;3.95;;
16478;SDS011;8350;52.316;10.530;2023-08-12T09:51:20;6.03;;;3.92;;
16478;SDS011;8350;52.316;10.530;2023-08-12T09:53:47;5.10;;;4.60;;
16478;SDS011;8350;52.316;10.530;2023-08-12T09:56:17;4.78;;;4.38;;
16478;SDS011;8350;52.316;10.530;2023-08-12T10:01:35;5.75;;;4.65;;
16478;SDS011;8350;52.316;10.530;2023-08-12T10:04:03;6.28;;;5.15;;
16478;SDS011;8350;52.316;10.530;2023-08-12T10:09:31;5.28;;;4.78;;
16478;SDS011;8350;52.316;10.530;2023-08-12T10:12:00;4.60;;;4.18;;
16478;SDS011;8350;52.316;10.530;2023-08-12T10:14:39;5.63;;;5.22;;
16478;SDS011;8350;52.316;10.530;2023-08-12T10:17:17;5.85;;;5.13;;
16478;SDS011;8350;52.316;10.530;2023-08-12T10:19:45;6.03;;;5.43;;
16478;SDS011;8350;52.316;10.530;2023-08-12T10:22:15;6.43;;;4.45;;
16478;SDS011;8350;52.316;10.530;2023-08-12T10:24:43;6.85;;;4.45;;
16478;SDS011;8350;52.316;10.530;2023-08-12T10:27:27;5.35;;;4.07;;
16478;SDS011;8350;52.316;10.530;2023-08-12T10:29:55;4.82;;;4.28;;
16478;SDS011;8350;52.316;10.530;2023-08-12T10:32:22;8.93;;;4.88;;
16478;SDS011;8350;52.316;10.530;2023-08-12T10:34:57;6.05;;;4.72;;
16478;SDS011;8350;52.316;10.530;2023-08-12T10:37:25;5.20;;;4.32;;
16478;SDS011;8350;52.316;10.530;2023-08-12T10:39:53;5.32;;;4.40;;
16478;SDS011;8350;52.316;10.530;2023-08-12T10:42:39;7.28;;;3.95;;
16478;SDS011;8350;52.316;10.530;2023-08-12T10:45:08;5.40;;;3.67;;
16478;SDS011;8350;52.316;10.530;2023-08-12T10:47:37;3.80;;;3.47;;
16478;SDS011;8350;52.316;10.530;2023-08-12T10:50:16;4.53;;;3.45;;
16478;SDS011;8350;52.316;10.530;2023-08-12T10:52:45;3.50;;;3.15;;
16478;SDS011;8350;52.316;10.530;2023-08-12T10:55:16;7.28;;;3.70;;
16478;SDS011;8350;52.316;10.530;2023-08-12T10:57:44;3.70;;;3.30;;
16478;SDS011;8350;52.316;10.530;2023-08-12T11:00:13;5.28;;;3.30;;
16478;SDS011;8350;52.316;10.530;2023-08-12T11:02:44;4.38;;;3.13;;
16478;SDS011;8350;52.316;10.530;2023-08-12T11:05:12;3.20;;;2.90;;
16478;SDS011;8350;52.316;10.530;2023-08-12T11:07:40;3.00;;;2.75;;
16478;SDS011;8350;52.316;10.530;2023-08-12T11:10:14;4.88;;;3.25;;
16478;SDS011;8350;52.316;10.530;2023-08-12T11:12:47;3.78;;;3.35;;
16478;SDS011;8350;52.316;10.530;2023-08-12T11:15:15;4.30;;;2.90;;
16478;SDS011;8350;52.316;10.530;2023-08-12T11:17:42;3.30;;;3.00;;
16478;SDS011;8350;52.316;10.530;2023-08-12T11:20:12;3.38;;;3.08;;
16478;SDS011;8350;52.316;10.530;2023-08-12T11:22:40;4.40;;;3.13;;
16478;SDS011;8350;52.316;10.530;2023-08-12T11:25:10;3.40;;;3.10;;
16478;SDS011;8350;52.316;10.530;2023-08-12T11:27:40;3.00;;;2.80;;
16478;SDS011;8350;52.316;10.530;2023-08-12T11:30:08;3.40;;;3.10;;
16478;SDS011;8350;52.316;10.530;2023-08-12T11:32:37;3.63;;;3.33;;
16478;SDS011;8350;52.316;10.530;2023-08-12T11:35:05;3.42;;;3.20;;
16478;SDS011;8350;52.316;10.530;2023-08-12T11:37:36;4.07;;;3.30;;
16478;SDS011;8350;52.316;10.530;2023-08-12T11:40:04;4.05;;;3.20;;
16478;SDS011;8350;52.316;10.530;2023-08-12T11:42:34;3.33;;;2.88;;
16478;SDS011;8350;52.316;10.530;2023-08-12T11:45:02;3.30;;;3.10;;
16478;SDS011;8350;52.316;10.530;2023-08-12T11:47:30;3.63;;;3.33;;
16478;SDS011;8350;52.316;10.530;2023-08-12T11:49:57;3.58;;;3.28;;
16478;SDS011;8350;52.316;10.530;2023-08-12T11:52:24;5.53;;;3.20;;
16478;SDS011;8350;52.316;10.530;2023-08-12T11:54:52;3.60;;;3.25;;
16478;SDS011;8350;52.316;10.530;2023-08-12T11:57:22;3.47;;;2.92;;
16478;SDS011;8350;52.316;10.530;2023-08-12T11:59:49;5.78;;;3.50;;
16478;SDS011;8350;52.316;10.530;2023-08-12T12:02:17;5.03;;;3.17;;
16478;SDS011;8350;52.316;10.530;2023-08-12T12:04:45;3.55;;;3.22;;
16478;SDS011;8350;52.316;10.530;2023-08-12T12:07:19;3.72;;;3.28;;
16478;SDS011;8350;52.316;10.530;2023-08-12T12:09:50;3.50;;;3.15;;
16478;SDS011;8350;52.316;10.530;2023-08-12T12:12:21;4.43;;;3.40;;
16478;SDS011;8350;52.316;10.530;2023-08-12T12:14:50;3.65;;;3.35;;
16478;SDS011;8350;52.316;10.530;2023-08-12T12:17:21;3.80;;;3.13;;
16478;SDS011;8350;52.316;10.530;2023-08-12T12:19:52;4.68;;;3.28;;
16478;SDS011;8350;52.316;10.530;2023-08-12T12:22:25;3.50;;;3.20;;
16478;SDS011;8350;52.316;10.530;2023-08-12T12:24:53;3.35;;;3.05;;
16478;SDS011;8350;52.316;10.530;2023-08-12T12:27:20;3.30;;;3.00;;
16478;SDS011;8350;52.316;10.530;2023-08-12T12:29:47;4.68;;;3.47;;
16478;SDS011;8350;52.316;10.530;2023-08-12T12:32:14;3.50;;;3.15;;
16478;SDS011;8350;52.316;10.530;2023-08-12T12:34:45;6.55;;;3.40;;
16478;SDS011;8350;52.316;10.530;2023-08-12T12:37:12;3.72;;;3.35;;
16478;SDS011;8350;52.316;10.530;2023-08-12T12:39:39;3.30;;;3.00;;
16478;SDS011;8350;52.316;10.530;2023-08-12T12:42:07;3.60;;;3.30;;
16478;SDS011;8350;52.316;10.530;2023-08-12T12:44:34;3.83;;;2.80;;
16478;SDS011;8350;52.316;10.530;2023-08-12T12:47:01;3.35;;;3.05;;
16478;SDS011;8350;52.316;10.530;2023-08-12T12:49:28;2.75;;;2.53;;
16478;SDS011;8350;52.316;10.530;2023-08-12T12:51:57;3.13;;;2.30;;
16478;SDS011;8350;52.316;10.530;2023-08-12T12:54:24;2.70;;;2.50;;
16478;SDS011;8350;52.316;10.530;2023-08-12T12:56:51;3.10;;;2.17;;
16478;SDS011;8350;52.316;10.530;2023-08-12T12:59:18;2.55;;;2.35;;
16478;SDS011;8350;52.316;10.530;2023-08-12T13:01:45;2.53;;;2.33;;
16478;SDS011;8350;52.316;10.530;2023-08-12T13:04:12;2.47;;;2.28;;
16478;SDS011;8350;52.316;10.530;2023-08-12T13:06:45;2.13;;;1.90;;
16478;SDS011;8350;52.316;10.530;2023-08-12T13:09:14;2.30;;;2.10;;
16478;SDS011;8350;52.316;10.530;2023-08-12T13:11:41;2.58;;;2.30;;
16478;SDS011;8350;52.316;10.530;2023-08-12T13:14:08;2.45;;;2.08;;
16478;SDS011;8350;52.316;10.530;2023-08-12T13:16:35;2.90;;;2.42;;
16478;SDS011;8350;52.316;10.530;2023-08-12T13:19:02;2.72;;;2.13;;
16478;SDS011;8350;52.316;10.530;2023-08-12T13:21:29;3.65;;;2.95;;
16478;SDS011;8350;52.316;10.530;2023-08-12T13:23:57;3.05;;;2.25;;
16478;SDS011;8350;52.316;10.530;2023-08-12T13:26:26;3.20;;;2.20;;
16478;SDS011;8350;52.316;10.530;2023-08-12T13:28:53;4.43;;;2.60;;
16478;SDS011;8350;52.316;10.530;2023-08-12T13:31:20;3.05;;;2.28;;
16478;SDS011;8350;52.316;10.530;2023-08-12T13:33:47;3.55;;;2.30;;
16478;SDS011;8350;52.316;10.530;2023-08-12T13:36:14;2.30;;;2.10;;
16478;SDS011;8350;52.316;10.530;2023-08-12T13:38:41;2.63;;;2.38;;
16478;SDS011;8350;52.316;10.530;2023-08-12T13:41:07;2.50;;;2.30;;
16478;SDS011;8350;52.316;10.530;2023-08-12T13:43:36;2.10;;;1.88;;
16478;SDS011;8350;52.316;10.530;2023-08-12T13:46:03;2.10;;;1.95;;
16478;SDS011;8350;52.316;10.530;2023-08-12T13:48:30;1.80;;;1.70;;
16478;SDS011;8350;52.316;10.530;2023-08-12T13:50:57;1.80;;;1.70;;
16478;SDS011;8350;52.316;10.530;2023-08-12T13:53:24;2.30;;;2.10;;
16478;SDS011;8350;52.316;10.530;2023-08-12T13:55:51;1.77;;;1.67;;
16478;SDS011;8350;52.316;10.530;2023-08-12T13:58:19;2.13;;;1.98;;
16478;SDS011;8350;52.316;10.530;2023-08-12T14:00:47;2.88;;;1.95;;
16478;SDS011;8350;52.316;10.530;2023-08-12T14:05:57;1.50;;;1.40;;
16478;SDS011;8350;52.316;10.530;2023-08-12T14:08:24;3.30;;;1.60;;
16478;SDS011;8350;52.316;10.530;2023-08-12T14:10:51;3.95;;;1.98;;
16478;SDS011;8350;52.316;10.530;2023-08-12T14:13:18;3.03;;;2.42;;
16478;SDS011;8350;52.316;10.530;2023-08-12T14:15:45;2.58;;;2.30;;
16478;SDS011;8350;52.316;10.530;2023-08-12T14:18:15;4.13;;;2.85;;
16478;SDS011;8350;52.316;10.530;2023-08-12T14:20:42;3.30;;;2.30;;
16478;SDS011;8350;52.316;10.530;2023-08-12T14:23:16;2.45;;;2.22;;
16478;SDS011;8350;52.316;10.530;2023-08-12T14:25:43;2.92;;;2.42;;
16478;SDS011;8350;52.316;10.530;2023-08-12T14:28:11;3.25;;;2.15;;
16478;SDS011;8350;52.316;10.530;2023-08-12T14:30:38;3.70;;;2.20;;
16478;SDS011;8350;52.316;10.530;2023-08-12T14:33:05;3.05;;;2.10;;
16478;SDS011;8350;52.316;10.530;2023-08-12T14:35:34;2.67;;;2.10;;
16478;SDS011;8350;52.316;10.530;2023-08-12T14:38:01;1.60;;;1.50;;
16478;SDS011;8350;52.316;10.530;2023-08-12T14:40:29;2.00;;;1.52;;
16478;SDS011;8350;52.316;10.530;2023-08-12T14:42:57;2.00;;;1.50;;
16478;SDS011;8350;52.316;10.530;2023-08-12T14:45:24;1.58;;;1.42;;
16478;SDS011;8350;52.316;10.530;2023-08-12T14:47:51;2.35;;;1.77;;
16478;SDS011;8350;52.316;10.530;2023-08-12T14:50:18;1.85;;;1.40;;
16478;SDS011;8350;52.316;10.530;2023-08-12T14:52:46;1.58;;;1.45;;
16478;SDS011;8350;52.316;10.530;2023-08-12T14:55:13;3.78;;;1.30;;
16478;SDS011;8350;52.316;10.530;2023-08-12T14:57:48;1.65;;;1.52;;
16478;SDS011;8350;52.316;10.530;2023-08-12T15:00:29;3.83;;;1.40;;
16478;SDS011;8350;52.316;10.530;2023-08-12T15:03:04;1.45;;;1.35;;
16478;SDS011;8350;52.316;10.530;2023-08-12T15:05:31;1.70;;;1.60;;
16478;SDS011;8350;52.316;10.530;2023-08-12T15:08:00;3.40;;;1.40;;
16478;SDS011;8350;52.316;10.530;2023-08-12T15:10:29;1.95;;;1.50;;